createdAt,value
2023-03-18T00:00:36.818Z,1002.1
2023-03-18T00:02:36.906Z,1002.2
2023-03-18T00:03:36.839Z,1002.2
2023-03-18T00:04:36.838Z,1002.2
2023-03-18T00:05:36.806Z,1002.1
2023-03-18T00:06:36.806Z,1002.1
2023-03-18T00:07:36.820Z,1002.2
2023-03-18T00:08:36.816Z,1002.2
2023-03-18T00:10:36.812Z,1002.2
2023-03-18T00:11:36.808Z,1002.2
2023-03-18T00:12:36.814Z,1002.2
2023-03-18T00:13:36.805Z,1002.1
2023-03-18T00:14:36.816Z,1002.1
2023-03-18T00:15:36.870Z,1002.1
2023-03-18T00:16:36.812Z,1002.1
2023-03-18T00:18:36.811Z,1002.1
2023-03-18T00:19:36.836Z,1002.1
2023-03-18T00:20:36.818Z,1002.1
2023-03-18T00:21:36.814Z,1002.1
2023-03-18T00:23:36.865Z,1002.1
2023-03-18T00:24:36.815Z,1002.1
2023-03-18T00:25:36.867Z,1002.1
2023-03-18T00:26:36.841Z,1002.1
2023-03-18T00:27:36.831Z,1002.1
2023-03-18T00:28:36.815Z,1002.1
2023-03-18T00:29:36.801Z,1002.1
2023-03-18T00:31:36.881Z,1002.2
2023-03-18T00:32:36.933Z,1002.2
2023-03-18T00:33:36.827Z,1002.3
2023-03-18T00:34:36.824Z,1002.3
2023-03-18T00:35:36.871Z,1002.3
2023-03-18T00:36:36.815Z,1002.3
2023-03-18T00:37:36.808Z,1002.3
2023-03-18T00:38:36.832Z,1002.3
2023-03-18T00:39:36.822Z,1002.3
2023-03-18T00:40:36.815Z,1002.3
2023-03-18T00:42:36.815Z,1002.3
2023-03-18T00:43:36.805Z,1002.4
2023-03-18T00:44:36.813Z,1002.4
2023-03-18T00:45:36.809Z,1002.4
2023-03-18T00:46:36.957Z,1002.4
2023-03-18T00:47:36.834Z,1002.3
2023-03-18T00:48:36.815Z,1002.3
2023-03-18T00:50:36.858Z,1002.3
2023-03-18T00:51:36.813Z,1002.3
2023-03-18T00:52:36.846Z,1002.3
2023-03-18T00:53:36.813Z,1002.3
2023-03-18T00:54:36.814Z,1002.3
2023-03-18T00:55:36.855Z,1002.3
2023-03-18T00:56:36.885Z,1002.3
2023-03-18T00:57:36.857Z,1002.3
2023-03-18T00:58:36.820Z,1002.3
2023-03-18T00:59:36.827Z,1002.3
2023-03-18T01:00:36.888Z,1002.3
2023-03-18T01:01:36.913Z,1002.3
2023-03-18T01:03:36.876Z,1002.3
2023-03-18T01:04:36.850Z,1002.3
2023-03-18T01:05:36.860Z,1002.2
2023-03-18T01:06:36.856Z,1002.2
2023-03-18T01:07:36.825Z,1002.2
2023-03-18T01:08:36.873Z,1002.2
2023-03-18T01:09:36.877Z,1002.2
2023-03-18T01:11:36.886Z,1002.2
2023-03-18T01:12:37.991Z,1002.2
2023-03-18T01:13:36.830Z,1002.2
2023-03-18T01:14:36.849Z,1002.2
2023-03-18T01:15:36.809Z,1002.2
2023-03-18T01:16:36.906Z,1002.2
2023-03-18T01:17:36.914Z,1002.2
2023-03-18T01:18:36.821Z,1002.2
2023-03-18T01:19:36.808Z,1002.2
2023-03-18T01:20:36.811Z,1002.2
2023-03-18T01:21:36.838Z,1002.3
2023-03-18T01:22:36.807Z,1002.3
2023-03-18T01:24:36.824Z,1002.3
2023-03-18T01:25:36.805Z,1002.2
2023-03-18T01:26:36.822Z,1002.3
2023-03-18T01:27:36.822Z,1002.3
2023-03-18T01:28:36.823Z,1002.3
2023-03-18T01:29:36.813Z,1002.3
2023-03-18T01:30:36.811Z,1002.3
2023-03-18T01:31:36.833Z,1002.3
2023-03-18T01:32:36.847Z,1002.3
2023-03-18T01:33:36.874Z,1002.3
2023-03-18T01:35:36.865Z,1002.3
2023-03-18T01:36:36.815Z,1002.3
2023-03-18T01:37:36.838Z,1002.4
2023-03-18T01:38:36.806Z,1002.3
2023-03-18T01:39:36.817Z,1002.3
2023-03-18T01:40:36.801Z,1002.3
2023-03-18T01:41:36.801Z,1002.3
2023-03-18T01:42:36.809Z,1002.3
2023-03-18T01:43:37.019Z,1002.3
2023-03-18T01:44:36.808Z,1002.3
2023-03-18T01:45:36.829Z,1002.3
2023-03-18T01:46:36.807Z,1002.3
2023-03-18T01:47:36.807Z,1002.3
2023-03-18T01:48:36.802Z,1002.3
2023-03-18T01:49:36.883Z,1002.3
2023-03-18T01:51:36.804Z,1002.3
2023-03-18T01:52:36.828Z,1002.3
2023-03-18T01:53:36.803Z,1002.3
2023-03-18T01:54:36.817Z,1002.4
2023-03-18T01:55:36.809Z,1002.4
2023-03-18T01:56:36.815Z,1002.5
2023-03-18T01:57:36.802Z,1002.5
2023-03-18T01:58:36.812Z,1002.5
2023-03-18T01:59:36.813Z,1002.5
2023-03-18T02:00:36.795Z,1002.5
2023-03-18T02:01:36.801Z,1002.5
2023-03-18T02:02:36.814Z,1002.4
2023-03-18T02:03:36.898Z,1002.4
2023-03-18T02:04:36.810Z,1002.4
2023-03-18T02:05:36.805Z,1002.5
2023-03-18T02:06:36.825Z,1002.5
2023-03-18T02:07:36.813Z,1002.5
2023-03-18T02:08:36.834Z,1002.5
2023-03-18T02:09:36.812Z,1002.5
2023-03-18T02:10:36.808Z,1002.5
2023-03-18T02:11:36.824Z,1002.5
2023-03-18T02:12:36.818Z,1002.5
2023-03-18T02:14:36.833Z,1002.4
2023-03-18T02:15:36.805Z,1002.3
2023-03-18T02:16:36.822Z,1002.3
2023-03-18T02:17:36.824Z,1002.3
2023-03-18T02:18:36.805Z,1002.3
2023-03-18T02:19:36.807Z,1002.3
2023-03-18T02:20:36.805Z,1002.3
2023-03-18T02:22:36.810Z,1002.3
2023-03-18T02:23:36.802Z,1002.3
2023-03-18T02:24:36.805Z,1002.3
2023-03-18T02:25:36.808Z,1002.3
2023-03-18T02:26:36.818Z,1002.3
2023-03-18T02:27:36.815Z,1002.3
2023-03-18T02:28:36.805Z,1002.3
2023-03-18T02:29:36.799Z,1002.4
2023-03-18T02:30:36.811Z,1002.4
2023-03-18T02:31:36.822Z,1002.3
2023-03-18T02:33:36.810Z,1002.3
2023-03-18T02:34:36.807Z,1002.3
2023-03-18T02:35:36.812Z,1002.3
2023-03-18T02:36:36.810Z,1002.3
2023-03-18T02:37:36.809Z,1002.4
2023-03-18T02:38:36.804Z,1002.4
2023-03-18T02:39:36.852Z,1002.4
2023-03-18T02:40:36.817Z,1002.5
2023-03-18T02:41:36.803Z,1002.4
2023-03-18T02:42:36.813Z,1002.5
2023-03-18T02:43:36.885Z,1002.5
2023-03-18T02:44:36.806Z,1002.5
2023-03-18T02:45:36.816Z,1002.5
2023-03-18T02:46:36.808Z,1002.5
2023-03-18T02:47:36.804Z,1002.5
2023-03-18T02:48:36.827Z,1002.4
2023-03-18T02:49:36.800Z,1002.4
2023-03-18T02:50:36.810Z,1002.4
2023-03-18T02:51:36.847Z,1002.4
2023-03-18T02:52:36.813Z,1002.4
2023-03-18T02:54:36.808Z,1002.4
2023-03-18T02:55:36.828Z,1002.4
2023-03-18T02:56:36.811Z,1002.4
2023-03-18T02:57:36.809Z,1002.4
2023-03-18T02:58:36.893Z,1002.4
2023-03-18T02:59:36.814Z,1002.4
2023-03-18T03:00:36.813Z,1002.4
2023-03-18T03:01:36.926Z,1002.4
2023-03-18T03:02:37.158Z,1002.4
2023-03-18T03:03:36.833Z,1002.4
2023-03-18T03:04:36.815Z,1002.5
2023-03-18T03:05:36.801Z,1002.5
2023-03-18T03:06:36.818Z,1002.4
2023-03-18T03:07:36.810Z,1002.5
2023-03-18T03:08:36.815Z,1002.5
2023-03-18T03:09:36.810Z,1002.6
2023-03-18T03:10:36.840Z,1002.5
2023-03-18T03:11:36.812Z,1002.5
2023-03-18T03:12:36.807Z,1002.5
2023-03-18T03:13:36.877Z,1002.6
2023-03-18T03:14:36.826Z,1002.6
2023-03-18T03:15:36.860Z,1002.6
2023-03-18T03:16:36.805Z,1002.6
2023-03-18T03:17:36.810Z,1002.6
2023-03-18T03:18:36.810Z,1002.6
2023-03-18T03:19:36.811Z,1002.6
2023-03-18T03:20:36.801Z,1002.6
2023-03-18T03:21:36.819Z,1002.5
2023-03-18T03:22:36.810Z,1002.5
2023-03-18T03:23:36.833Z,1002.6
2023-03-18T03:24:36.808Z,1002.6
2023-03-18T03:25:36.802Z,1002.6
2023-03-18T03:26:36.807Z,1002.6
2023-03-18T03:27:36.800Z,1002.6
2023-03-18T03:28:36.818Z,1002.6
2023-03-18T03:29:36.807Z,1002.6
2023-03-18T03:30:36.825Z,1002.6
2023-03-18T03:31:36.811Z,1002.6
2023-03-18T03:32:36.858Z,1002.6
2023-03-18T03:33:36.805Z,1002.6
2023-03-18T03:34:36.816Z,1002.6
2023-03-18T03:35:36.858Z,1002.6
2023-03-18T03:36:36.812Z,1002.6
2023-03-18T03:37:36.813Z,1002.6
2023-03-18T03:38:36.814Z,1002.6
2023-03-18T03:39:36.814Z,1002.6
2023-03-18T03:40:36.810Z,1002.6
2023-03-18T03:41:36.834Z,1002.6
2023-03-18T03:42:36.810Z,1002.6
2023-03-18T03:43:36.816Z,1002.6
2023-03-18T03:44:36.811Z,1002.6
2023-03-18T03:45:36.819Z,1002.6
2023-03-18T03:47:36.827Z,1002.7
2023-03-18T03:48:36.804Z,1002.7
2023-03-18T03:49:36.817Z,1002.7
2023-03-18T03:50:36.811Z,1002.7
2023-03-18T03:51:36.808Z,1002.7
2023-03-18T03:52:36.809Z,1002.7
2023-03-18T03:53:36.816Z,1002.7
2023-03-18T03:54:36.810Z,1002.7
2023-03-18T03:55:36.806Z,1002.7
2023-03-18T03:56:36.803Z,1002.8
2023-03-18T03:57:36.818Z,1002.8
2023-03-18T03:58:36.816Z,1002.8
2023-03-18T03:59:36.804Z,1002.8
2023-03-18T04:00:36.813Z,1002.8
2023-03-18T04:01:36.807Z,1002.8
2023-03-18T04:02:36.840Z,1002.8
2023-03-18T04:03:36.819Z,1002.8
2023-03-18T04:04:36.852Z,1002.8
2023-03-18T04:05:36.815Z,1002.8
2023-03-18T04:06:36.807Z,1002.9
2023-03-18T04:07:36.809Z,1002.9
2023-03-18T04:08:36.804Z,1002.9
2023-03-18T04:09:36.803Z,1002.9
2023-03-18T04:10:36.820Z,1002.9
2023-03-18T04:11:36.818Z,1002.9
2023-03-18T04:12:36.866Z,1003
2023-03-18T04:13:36.799Z,1002.9
2023-03-18T04:14:36.810Z,1003
2023-03-18T04:15:36.853Z,1003
2023-03-18T04:16:36.810Z,1003
2023-03-18T04:17:36.831Z,1002.9
2023-03-18T04:18:36.806Z,1003
2023-03-18T04:19:36.805Z,1003
2023-03-18T04:20:36.826Z,1003
2023-03-18T04:21:36.806Z,1003
2023-03-18T04:22:36.799Z,1002.9
2023-03-18T04:23:36.799Z,1002.9
2023-03-18T04:24:36.810Z,1003
2023-03-18T04:25:36.831Z,1003
2023-03-18T04:26:36.800Z,1003
2023-03-18T04:27:36.810Z,1003
2023-03-18T04:29:36.812Z,1003
2023-03-18T04:30:36.805Z,1003
2023-03-18T04:31:36.903Z,1003.1
2023-03-18T04:32:36.960Z,1003.1
2023-03-18T04:33:36.807Z,1003.1
2023-03-18T04:34:36.804Z,1003
2023-03-18T04:35:36.872Z,1003.1
2023-03-18T04:36:36.807Z,1003
2023-03-18T04:37:37.506Z,1003.1
2023-03-18T04:38:36.812Z,1003
2023-03-18T04:39:36.809Z,1003
2023-03-18T04:40:36.803Z,1003
2023-03-18T04:41:36.807Z,1003.1
2023-03-18T04:42:36.802Z,1003.1
2023-03-18T04:43:36.834Z,1003.1
2023-03-18T04:44:36.817Z,1003.1
2023-03-18T04:45:36.809Z,1003.1
2023-03-18T04:46:36.816Z,1003.1
2023-03-18T04:48:36.806Z,1003.1
2023-03-18T04:49:36.811Z,1003.2
2023-03-18T04:50:36.817Z,1003.2
2023-03-18T04:51:36.819Z,1003.2
2023-03-18T04:52:36.813Z,1003.2
2023-03-18T04:53:36.817Z,1003.2
2023-03-18T04:54:36.819Z,1003.2
2023-03-18T04:55:36.804Z,1003.2
2023-03-18T04:56:36.808Z,1003.2
2023-03-18T04:57:36.871Z,1003.2
2023-03-18T04:59:36.801Z,1003.2
2023-03-18T05:00:36.908Z,1003.2
2023-03-18T05:01:36.808Z,1003.2
2023-03-18T05:02:36.875Z,1003.2
2023-03-18T05:03:36.902Z,1003.2
2023-03-18T05:04:36.814Z,1003.2
2023-03-18T05:05:38.642Z,1003.2
2023-03-18T05:06:36.804Z,1003.2
2023-03-18T05:07:36.803Z,1003.2
2023-03-18T05:08:36.807Z,1003.2
2023-03-18T05:09:36.815Z,1003.3
2023-03-18T05:10:36.812Z,1003.3
2023-03-18T05:11:36.804Z,1003.3
2023-03-18T05:12:36.812Z,1003.3
2023-03-18T05:13:36.812Z,1003.3
2023-03-18T05:14:36.837Z,1003.3
2023-03-18T05:15:36.805Z,1003.3
2023-03-18T05:16:36.937Z,1003.3
2023-03-18T05:17:36.825Z,1003.3
2023-03-18T05:18:36.805Z,1003.3
2023-03-18T05:19:36.806Z,1003.3
2023-03-18T05:20:36.806Z,1003.3
2023-03-18T05:21:36.809Z,1003.3
2023-03-18T05:22:36.800Z,1003.3
2023-03-18T05:23:36.809Z,1003.4
2023-03-18T05:24:36.821Z,1003.4
2023-03-18T05:25:36.813Z,1003.3
2023-03-18T05:26:36.820Z,1003.3
2023-03-18T05:27:36.808Z,1003.3
2023-03-18T05:28:36.806Z,1003.3
2023-03-18T05:29:36.806Z,1003.3
2023-03-18T05:30:36.802Z,1003.4
2023-03-18T05:31:36.843Z,1003.3
2023-03-18T05:32:36.841Z,1003.4
2023-03-18T05:33:36.802Z,1003.4
2023-03-18T05:34:36.805Z,1003.4
2023-03-18T05:35:36.847Z,1003.3
2023-03-18T05:36:36.808Z,1003.4
2023-03-18T05:37:36.818Z,1003.4
2023-03-18T05:38:36.802Z,1003.4
2023-03-18T05:39:36.801Z,1003.4
2023-03-18T05:41:36.814Z,1003.4
2023-03-18T05:42:46.063Z,1003.5
2023-03-18T05:43:36.809Z,1003.4
2023-03-18T05:44:36.801Z,1003.4
2023-03-18T05:45:39.947Z,1003.4
2023-03-18T05:46:36.802Z,1003.4
2023-03-18T05:47:36.809Z,1003.4
2023-03-18T05:48:36.801Z,1003.4
2023-03-18T05:49:36.804Z,1003.4
2023-03-18T05:50:36.802Z,1003.5
2023-03-18T05:51:36.807Z,1003.5
2023-03-18T05:52:36.819Z,1003.5
2023-03-18T05:53:36.811Z,1003.5
2023-03-18T05:54:36.803Z,1003.5
2023-03-18T05:55:36.805Z,1003.6
2023-03-18T05:56:36.807Z,1003.6
2023-03-18T05:57:36.809Z,1003.6
2023-03-18T05:58:36.799Z,1003.6
2023-03-18T05:59:36.835Z,1003.6
2023-03-18T06:00:36.806Z,1003.6
2023-03-18T06:02:36.862Z,1003.7
2023-03-18T06:03:36.907Z,1003.7
2023-03-18T06:04:36.808Z,1003.7
2023-03-18T06:05:36.807Z,1003.7
2023-03-18T06:06:36.807Z,1003.7
2023-03-18T06:07:36.825Z,1003.7
2023-03-18T06:08:36.802Z,1003.7
2023-03-18T06:09:36.814Z,1003.7
2023-03-18T06:10:36.810Z,1003.7
2023-03-18T06:11:36.803Z,1003.7
2023-03-18T06:12:36.812Z,1003.7
2023-03-18T06:13:36.805Z,1003.7
2023-03-18T06:14:37.199Z,1003.7
2023-03-18T06:15:36.801Z,1003.7
2023-03-18T06:16:36.866Z,1003.7
2023-03-18T06:17:36.818Z,1003.8
2023-03-18T06:18:36.816Z,1003.8
2023-03-18T06:19:36.799Z,1003.8
2023-03-18T06:20:36.795Z,1003.8
2023-03-18T06:21:36.872Z,1003.7
2023-03-18T06:23:36.806Z,1003.7
2023-03-18T06:24:36.802Z,1003.8
2023-03-18T06:25:36.809Z,1003.8
2023-03-18T06:26:36.804Z,1003.8
2023-03-18T06:27:36.814Z,1003.7
2023-03-18T06:28:36.805Z,1003.8
2023-03-18T06:29:36.815Z,1003.8
2023-03-18T06:30:36.799Z,1003.8
2023-03-18T06:31:36.819Z,1003.9
2023-03-18T06:32:36.858Z,1003.9
2023-03-18T06:33:36.802Z,1003.9
2023-03-18T06:34:36.804Z,1003.9
2023-03-18T06:35:36.903Z,1003.9
2023-03-18T06:36:36.809Z,1003.9
2023-03-18T06:37:36.820Z,1004
2023-03-18T06:39:36.829Z,1003.9
2023-03-18T06:40:36.798Z,1004
2023-03-18T06:41:36.863Z,1004
2023-03-18T06:42:36.822Z,1004
2023-03-18T06:43:36.803Z,1004
2023-03-18T06:44:36.813Z,1004
2023-03-18T06:45:36.811Z,1004
2023-03-18T06:46:36.828Z,1004
2023-03-18T06:47:36.830Z,1004
2023-03-18T06:48:36.814Z,1004
2023-03-18T06:49:36.800Z,1004.1
2023-03-18T06:50:36.797Z,1004
2023-03-18T06:51:36.864Z,1004.1
2023-03-18T06:52:36.802Z,1004.1
2023-03-18T06:54:36.804Z,1004.1
2023-03-18T06:55:36.809Z,1004.1
2023-03-18T06:56:36.810Z,1004.2
2023-03-18T06:57:36.804Z,1004.2
2023-03-18T06:58:36.810Z,1004.1
2023-03-18T07:00:36.864Z,1004
2023-03-18T07:01:36.900Z,1004.1
2023-03-18T07:02:39.403Z,1004.1
2023-03-18T07:03:36.801Z,1004.1
2023-03-18T07:04:36.849Z,1004.1
2023-03-18T07:05:36.802Z,1004.1
2023-03-18T07:06:36.799Z,1004.1
2023-03-18T07:07:36.802Z,1004
2023-03-18T07:08:36.819Z,1004
2023-03-18T07:09:36.822Z,1004
2023-03-18T07:10:36.807Z,1004.1
2023-03-18T07:11:36.810Z,1004.1
2023-03-18T07:12:36.807Z,1004.1
2023-03-18T07:13:36.807Z,1004.1
2023-03-18T07:15:36.860Z,1004.1
2023-03-18T07:16:36.813Z,1004.1
2023-03-18T07:17:36.822Z,1004.1
2023-03-18T07:18:36.836Z,1004.1
2023-03-18T07:19:36.821Z,1004.1
2023-03-18T07:20:36.820Z,1004.2
2023-03-18T07:21:36.819Z,1004.2
2023-03-18T07:22:36.829Z,1004.2
2023-03-18T07:23:36.814Z,1004.2
2023-03-18T07:24:37.004Z,1004.2
2023-03-18T07:25:36.825Z,1004.1
2023-03-18T07:26:36.819Z,1004.1
2023-03-18T07:27:36.818Z,1004.1
2023-03-18T07:28:36.800Z,1004.2
2023-03-18T07:29:36.818Z,1004.2
2023-03-18T07:30:36.815Z,1004.2
2023-03-18T07:31:36.903Z,1004.2
2023-03-18T07:32:36.914Z,1004.2
2023-03-18T07:33:36.809Z,1004.2
2023-03-18T07:34:36.805Z,1004.2
2023-03-18T07:35:36.823Z,1004.3
2023-03-18T07:36:36.809Z,1004.3
2023-03-18T07:37:36.810Z,1004.2
2023-03-18T07:38:36.813Z,1004.2
2023-03-18T07:39:36.805Z,1004.3
2023-03-18T07:40:36.808Z,1004.2
2023-03-18T07:41:37.993Z,1004.3
2023-03-18T07:42:36.802Z,1004.3
2023-03-18T07:44:36.812Z,1004.3
2023-03-18T07:45:36.823Z,1004.3
2023-03-18T07:46:36.871Z,1004.3
2023-03-18T07:47:36.808Z,1004.3
2023-03-18T07:48:36.802Z,1004.4
2023-03-18T07:49:36.851Z,1004.3
2023-03-18T07:50:36.816Z,1004.3
2023-03-18T07:51:36.797Z,1004.3
2023-03-18T07:52:36.811Z,1004.3
2023-03-18T07:54:36.797Z,1004.3
2023-03-18T07:55:36.811Z,1004.3
2023-03-18T07:56:36.824Z,1004.3
2023-03-18T07:57:36.828Z,1004.3
2023-03-18T07:58:36.815Z,1004.4
2023-03-18T07:59:36.811Z,1004.4
2023-03-18T08:00:36.802Z,1004.4
2023-03-18T08:01:36.805Z,1004.4
2023-03-18T08:02:36.810Z,1004.5
2023-03-18T08:03:36.848Z,1004.5
2023-03-18T08:04:36.869Z,1004.5
2023-03-18T08:05:36.812Z,1004.5
2023-03-18T08:06:36.810Z,1004.5
2023-03-18T08:07:36.806Z,1004.5
2023-03-18T08:08:36.811Z,1004.5
2023-03-18T08:09:36.805Z,1004.5
2023-03-18T08:10:36.811Z,1004.5
2023-03-18T08:11:37.041Z,1004.5
2023-03-18T08:12:51.637Z,1004.5
2023-03-18T08:13:36.800Z,1004.5
2023-03-18T08:15:36.804Z,1004.5
2023-03-18T08:16:36.905Z,1004.5
2023-03-18T08:17:36.802Z,1004.5
2023-03-18T08:18:36.822Z,1004.6
2023-03-18T08:19:36.807Z,1004.6
2023-03-18T08:20:36.836Z,1004.6
2023-03-18T08:21:36.810Z,1004.6
2023-03-18T08:22:36.810Z,1004.6
2023-03-18T08:24:36.804Z,1004.6
2023-03-18T08:25:36.808Z,1004.6
2023-03-18T08:26:36.841Z,1004.7
2023-03-18T08:27:36.807Z,1004.7
2023-03-18T08:28:36.813Z,1004.6
2023-03-18T08:29:36.842Z,1004.7
2023-03-18T08:30:36.808Z,1004.7
2023-03-18T08:31:36.945Z,1004.7
2023-03-18T08:32:36.859Z,1004.7
2023-03-18T08:33:36.806Z,1004.7
2023-03-18T08:34:36.813Z,1004.7
2023-03-18T08:35:36.905Z,1004.8
2023-03-18T08:36:36.809Z,1004.8
2023-03-18T08:37:36.816Z,1004.8
2023-03-18T08:38:36.817Z,1004.8
2023-03-18T08:39:36.807Z,1004.9
2023-03-18T08:40:36.811Z,1004.8
2023-03-18T08:41:36.812Z,1004.9
2023-03-18T08:42:36.828Z,1004.8
2023-03-18T08:43:39.024Z,1004.9
2023-03-18T08:45:36.826Z,1004.8
2023-03-18T08:46:36.829Z,1004.9
2023-03-18T08:47:36.822Z,1004.8
2023-03-18T08:48:36.848Z,1004.9
2023-03-18T08:49:36.825Z,1004.9
2023-03-18T08:50:36.807Z,1005
2023-03-18T08:51:36.839Z,1004.9
2023-03-18T08:52:36.839Z,1004.9
2023-03-18T08:53:36.820Z,1005
2023-03-18T08:54:36.833Z,1005
2023-03-18T08:55:36.817Z,1005
2023-03-18T08:56:36.820Z,1005
2023-03-18T08:57:36.825Z,1004.9
2023-03-18T08:58:36.831Z,1005
2023-03-18T08:59:36.839Z,1005
2023-03-18T09:00:36.814Z,1005
2023-03-18T09:01:36.963Z,1004.9
2023-03-18T09:02:36.815Z,1004.9
2023-03-18T09:03:36.877Z,1004.9
2023-03-18T09:04:36.828Z,1004.9
2023-03-18T09:05:36.825Z,1004.9
2023-03-18T09:06:36.812Z,1004.9
2023-03-18T09:07:36.808Z,1004.9
2023-03-18T09:08:36.842Z,1005
2023-03-18T09:09:43.543Z,1004.9
2023-03-18T09:10:36.922Z,1005
2023-03-18T09:11:36.814Z,1004.9
2023-03-18T09:12:36.827Z,1004.9
2023-03-18T09:13:39.001Z,1005
2023-03-18T09:14:36.834Z,1005
2023-03-18T09:15:36.848Z,1005
2023-03-18T09:17:53.449Z,1005
2023-03-18T09:18:36.826Z,1005
2023-03-18T09:19:36.818Z,1004.9
2023-03-18T09:20:36.821Z,1004.9
2023-03-18T09:21:36.829Z,1004.9
2023-03-18T09:22:36.841Z,1005
2023-03-18T09:23:36.886Z,1005
2023-03-18T09:24:36.825Z,1005
2023-03-18T09:25:36.833Z,1005
2023-03-18T09:26:36.833Z,1005
2023-03-18T09:27:36.826Z,1005
2023-03-18T09:28:36.827Z,1005
2023-03-18T09:29:36.822Z,1005
2023-03-18T09:30:37.037Z,1005
2023-03-18T09:31:36.826Z,1005
2023-03-18T09:32:36.946Z,1005
2023-03-18T09:33:36.838Z,1005
2023-03-18T09:34:36.827Z,1004.9
2023-03-18T09:35:36.891Z,1004.9
2023-03-18T09:36:36.832Z,1005
2023-03-18T09:37:36.813Z,1005
2023-03-18T09:38:36.811Z,1004.9
2023-03-18T09:39:36.823Z,1004.9
2023-03-18T09:40:38.317Z,1004.9
2023-03-18T09:41:36.823Z,1004.9
2023-03-18T09:42:36.820Z,1004.9
2023-03-18T09:43:36.819Z,1004.9
2023-03-18T09:44:36.821Z,1005
2023-03-18T09:45:36.887Z,1005
2023-03-18T09:46:37.016Z,1005
2023-03-18T09:48:36.834Z,1005
2023-03-18T09:49:36.840Z,1004.9
2023-03-18T09:50:36.838Z,1004.9
2023-03-18T09:51:36.827Z,1004.9
2023-03-18T09:52:36.825Z,1004.9
2023-03-18T09:53:36.846Z,1004.9
2023-03-18T09:54:36.864Z,1004.9
2023-03-18T09:55:36.820Z,1004.9
2023-03-18T09:56:36.842Z,1004.9
2023-03-18T09:57:36.873Z,1004.9
2023-03-18T09:59:36.825Z,1005
2023-03-18T10:00:36.844Z,1005
2023-03-18T10:01:36.886Z,1005
2023-03-18T10:02:36.824Z,1005
2023-03-18T10:03:36.849Z,1005
2023-03-18T10:04:36.822Z,1005
2023-03-18T10:05:36.886Z,1005
2023-03-18T10:06:36.822Z,1005
2023-03-18T10:07:36.837Z,1005
2023-03-18T10:08:36.828Z,1005
2023-03-18T10:09:36.842Z,1005
2023-03-18T10:10:36.832Z,1005.1
2023-03-18T10:11:36.841Z,1005.1
2023-03-18T10:12:36.845Z,1005
2023-03-18T10:13:36.823Z,1005
2023-03-18T10:14:36.833Z,1005.1
2023-03-18T10:15:37.112Z,1005
2023-03-18T10:16:36.833Z,1005
2023-03-18T10:17:36.848Z,1005.1
2023-03-18T10:18:36.834Z,1005.1
2023-03-18T10:20:37.226Z,1005
2023-03-18T10:21:36.826Z,1005
2023-03-18T10:22:36.831Z,1005
2023-03-18T10:23:36.836Z,1005
2023-03-18T10:24:36.854Z,1005
2023-03-18T10:25:36.833Z,1005
2023-03-18T10:26:36.832Z,1005
2023-03-18T10:27:36.856Z,1005
2023-03-18T10:28:36.844Z,1005
2023-03-18T10:29:36.839Z,1005
2023-03-18T10:30:36.838Z,1005
2023-03-18T10:31:36.943Z,1005
2023-03-18T10:32:49.118Z,1004.9
2023-03-18T10:33:36.835Z,1004.9
2023-03-18T10:34:36.860Z,1004.9
2023-03-18T10:35:37.088Z,1004.9
2023-03-18T10:36:36.851Z,1004.9
2023-03-18T10:37:36.960Z,1004.9
2023-03-18T10:38:36.870Z,1004.9
2023-03-18T10:39:36.838Z,1004.9
2023-03-18T10:41:36.842Z,1004.9
2023-03-18T10:42:36.863Z,1004.9
2023-03-18T10:43:36.858Z,1004.9
2023-03-18T10:44:36.915Z,1004.9
2023-03-18T10:45:36.845Z,1004.9
2023-03-18T10:46:37.007Z,1004.8
2023-03-18T10:47:36.978Z,1004.9
2023-03-18T10:48:36.859Z,1004.9
2023-03-18T10:49:36.853Z,1004.9
2023-03-18T10:50:37.179Z,1004.9
2023-03-18T10:51:36.864Z,1004.9
2023-03-18T10:52:36.843Z,1005
2023-03-18T10:53:36.843Z,1005
2023-03-18T10:54:36.918Z,1005
2023-03-18T10:55:36.893Z,1005
2023-03-18T10:56:36.874Z,1005
2023-03-18T10:57:36.855Z,1005
2023-03-18T10:58:36.970Z,1005
2023-03-18T11:00:36.893Z,1005
2023-03-18T11:01:36.900Z,1005
2023-03-18T11:02:36.896Z,1004.9
2023-03-18T11:03:36.874Z,1004.9
2023-03-18T11:04:36.852Z,1004.8
2023-03-18T11:05:36.845Z,1004.9
2023-03-18T11:06:36.854Z,1004.9
2023-03-18T11:07:36.869Z,1004.8
2023-03-18T11:08:36.867Z,1004.9
2023-03-18T11:09:36.873Z,1004.8
2023-03-18T11:10:37.026Z,1004.8
2023-03-18T11:11:36.859Z,1004.8
2023-03-18T11:12:36.854Z,1004.7
2023-03-18T11:14:36.864Z,1004.8
2023-03-18T11:15:36.853Z,1004.7
2023-03-18T11:16:36.863Z,1004.7
2023-03-18T11:17:36.876Z,1004.8
2023-03-18T11:18:36.860Z,1004.7
2023-03-18T11:19:36.882Z,1004.7
2023-03-18T11:21:36.859Z,1004.8
2023-03-18T11:22:36.893Z,1004.7
2023-03-18T11:23:36.858Z,1004.7
2023-03-18T11:24:36.856Z,1004.6
2023-03-18T11:25:36.852Z,1004.6
2023-03-18T11:26:36.884Z,1004.7
2023-03-18T11:27:36.854Z,1004.7
2023-03-18T11:28:36.857Z,1004.6
2023-03-18T11:29:36.926Z,1004.7
2023-03-18T11:30:36.875Z,1004.7
2023-03-18T11:31:36.861Z,1004.7
2023-03-18T11:32:36.898Z,1004.7
2023-03-18T11:33:36.879Z,1004.7
2023-03-18T11:34:36.930Z,1004.7
2023-03-18T11:35:36.907Z,1004.8
2023-03-18T11:36:36.870Z,1004.8
2023-03-18T11:37:36.852Z,1004.8
2023-03-18T11:38:36.881Z,1004.8
2023-03-18T11:39:36.860Z,1004.8
2023-03-18T11:40:36.858Z,1004.8
2023-03-18T11:41:36.859Z,1004.8
2023-03-18T11:42:36.853Z,1004.7
2023-03-18T11:43:36.855Z,1004.8
2023-03-18T11:44:36.857Z,1004.7
2023-03-18T11:45:36.849Z,1004.7
2023-03-18T11:46:36.958Z,1004.6
2023-03-18T11:47:36.959Z,1004.7
2023-03-18T11:48:36.983Z,1004.7
2023-03-18T11:49:36.871Z,1004.7
2023-03-18T11:50:36.870Z,1004.7
2023-03-18T11:51:36.879Z,1004.7
2023-03-18T11:52:36.860Z,1004.7
2023-03-18T11:53:36.860Z,1004.6
2023-03-18T11:54:36.868Z,1004.7
2023-03-18T11:55:36.869Z,1004.7
2023-03-18T11:56:36.876Z,1004.7
2023-03-18T11:57:36.902Z,1004.8
2023-03-18T11:58:36.875Z,1004.8
2023-03-18T11:59:36.867Z,1004.8
2023-03-18T12:00:36.900Z,1004.8
2023-03-18T12:01:36.946Z,1004.8
2023-03-18T12:02:36.855Z,1004.8
2023-03-18T12:03:36.903Z,1004.7
2023-03-18T12:04:36.881Z,1004.7
2023-03-18T12:05:36.867Z,1004.7
2023-03-18T12:06:36.884Z,1004.7
2023-03-18T12:07:38.245Z,1004.7
2023-03-18T12:08:36.871Z,1004.7
2023-03-18T12:09:36.863Z,1004.7
2023-03-18T12:10:36.878Z,1004.7
2023-03-18T12:11:36.866Z,1004.6
2023-03-18T12:12:36.869Z,1004.6
2023-03-18T12:13:37.640Z,1004.6
2023-03-18T12:14:36.885Z,1004.5
2023-03-18T12:15:36.869Z,1004.6
2023-03-18T12:16:36.899Z,1004.5
2023-03-18T12:17:36.889Z,1004.5
2023-03-18T12:18:36.866Z,1004.6
2023-03-18T12:19:36.927Z,1004.6
2023-03-18T12:20:36.869Z,1004.6
2023-03-18T12:21:36.887Z,1004.5
2023-03-18T12:22:36.875Z,1004.6
2023-03-18T12:23:36.864Z,1004.6
2023-03-18T12:24:36.880Z,1004.5
2023-03-18T12:25:36.861Z,1004.6
2023-03-18T12:26:36.882Z,1004.5
2023-03-18T12:27:36.876Z,1004.6
2023-03-18T12:28:36.901Z,1004.6
2023-03-18T12:29:36.877Z,1004.5
2023-03-18T12:30:36.875Z,1004.6
2023-03-18T12:31:36.877Z,1004.7
2023-03-18T12:32:36.913Z,1004.6
2023-03-18T12:33:36.872Z,1004.6
2023-03-18T12:34:36.877Z,1004.6
2023-03-18T12:35:37.189Z,1004.6
2023-03-18T12:36:36.872Z,1004.6
2023-03-18T12:37:36.876Z,1004.6
2023-03-18T12:38:36.881Z,1004.6
2023-03-18T12:39:36.876Z,1004.6
2023-03-18T12:40:36.879Z,1004.6
2023-03-18T12:41:37.376Z,1004.6
2023-03-18T12:42:36.885Z,1004.6
2023-03-18T12:43:36.933Z,1004.6
2023-03-18T12:44:36.878Z,1004.6
2023-03-18T12:45:36.953Z,1004.5
2023-03-18T12:46:36.885Z,1004.5
2023-03-18T12:47:37.329Z,1004.5
2023-03-18T12:48:43.999Z,1004.5
2023-03-18T12:49:36.882Z,1004.4
2023-03-18T12:50:36.888Z,1004.5
2023-03-18T12:51:36.874Z,1004.5
2023-03-18T12:52:36.891Z,1004.5
2023-03-18T12:53:36.898Z,1004.4
2023-03-18T12:54:36.871Z,1004.4
2023-03-18T12:55:36.885Z,1004.4
2023-03-18T12:56:36.895Z,1004.4
2023-03-18T12:57:36.878Z,1004.4
2023-03-18T12:58:36.885Z,1004.4
2023-03-18T12:59:36.902Z,1004.4
2023-03-18T13:00:36.938Z,1004.4
2023-03-18T13:01:36.912Z,1004.3
2023-03-18T13:02:36.933Z,1004.3
2023-03-18T13:03:36.957Z,1004.3
2023-03-18T13:04:37.002Z,1004.3
2023-03-18T13:05:36.926Z,1004.3
2023-03-18T13:06:36.883Z,1004.3
2023-03-18T13:07:36.876Z,1004.2
2023-03-18T13:08:36.900Z,1004.2
2023-03-18T13:09:36.877Z,1004.3
2023-03-18T13:10:36.905Z,1004.2
2023-03-18T13:11:36.881Z,1004.2
2023-03-18T13:12:36.902Z,1004.3
2023-03-18T13:13:36.875Z,1004.3
2023-03-18T13:14:39.288Z,1004.2